Time;durP1;ratioP1;P1;durP2;ratioP2;P2;SDS_P1;SDS_P2;PMS_P1;PMS_P2;Temp;Humidity;BMP_temperature;BMP_pressure;BME280_temperature;BME280_humidity;BME280_pressure;Samples;Min_cycle;Max_cycle;Signal;HPM_P1;HPM_P2
2023/04/04 00:01:59;;;;;;;;;2.75;2.75;;;;;;;;5045811;28;61890;-90
2023/04/04 00:04:26;;;;;;;;;3.00;2.00;;;;;;;;5063868;28;62077;-90
2023/04/04 00:06:51;;;;;;;;;7.00;4.00;;;;;;;;5045108;28;63444;-90
2023/04/04 00:09:17;;;;;;;;;4.00;3.00;;;;;;;;5045272;28;62003;-89
2023/04/04 00:11:42;;;;;;;;;5.75;5.75;;;;;;;;5063672;28;61771;-89
2023/04/04 00:14:08;;;;;;;;;5.50;4.00;;;;;;;;5044275;28;61671;-90
2023/04/04 00:16:33;;;;;;;;;6.25;4.50;;;;;;;;5044820;28;63629;-90
2023/04/04 00:18:58;;;;;;;;;6.00;4.00;;;;;;;;5045656;28;61784;-88
2023/04/04 00:21:26;;;;;;;;;2.75;2.25;;;;;;;;5048342;28;61678;-89
2023/04/04 00:23:53;;;;;;;;;4.00;4.00;;;;;;;;5025350;28;61914;-90
2023/04/04 00:26:19;;;;;;;;;6.00;4.00;;;;;;;;5023810;28;64971;-89
2023/04/04 00:28:44;;;;;;;;;5.50;3.25;;;;;;;;5043354;28;61748;-90
2023/04/04 00:31:09;;;;;;;;;3.50;3.50;;;;;;;;5043624;28;62118;-90
2023/04/04 00:33:34;;;;;;;;;5.50;4.00;;;;;;;;5025347;28;62363;-89
2023/04/04 00:36:00;;;;;;;;;3.75;3.75;;;;;;;;5042243;28;63194;-89
2023/04/04 00:38:25;;;;;;;;;4.50;4.00;;;;;;;;5024741;28;61896;-89
2023/04/04 00:40:50;;;;;;;;;5.50;4.00;;;;;;;;5034771;28;61732;-89
2023/04/04 00:43:17;;;;;;;;;4.75;4.75;;;;;;;;5063647;28;61986;-89
2023/04/04 00:45:42;;;;;;;;;4.75;3.00;;;;;;;;5044338;28;63643;-89
2023/04/04 00:48:08;;;;;;;;;4.25;4.25;;;;;;;;5063248;28;61700;-89
2023/04/04 00:50:33;;;;;;;;;7.00;6.25;;;;;;;;5063129;28;61692;-90
2023/04/04 00:52:59;;;;;;;;;5.75;5.75;;;;;;;;5045137;28;61739;-89
2023/04/04 00:55:24;;;;;;;;;4.50;4.50;;;;;;;;5061769;28;61852;-89
2023/04/04 00:57:50;;;;;;;;;9.25;5.00;;;;;;;;5044683;28;61868;-89
2023/04/04 01:00:15;;;;;;;;;7.25;4.50;;;;;;;;5044802;28;61882;-89
2023/04/04 01:02:41;;;;;;;;;5.50;3.50;;;;;;;;5062981;28;61903;-90
2023/04/04 01:05:07;;;;;;;;;6.25;5.00;;;;;;;;5044203;28;63736;-89
2023/04/04 01:07:33;;;;;;;;;8.00;5.50;;;;;;;;5044252;28;61816;-89
2023/04/04 01:09:58;;;;;;;;;4.00;2.75;;;;;;;;5045101;28;62048;-89
2023/04/04 01:12:24;;;;;;;;;7.25;6.75;;;;;;;;5044836;28;62151;-89
2023/04/04 01:14:50;;;;;;;;;4.00;4.00;;;;;;;;5043848;28;65027;-90
2023/04/04 01:17:15;;;;;;;;;9.25;6.75;;;;;;;;5044689;28;61822;-90
2023/04/04 01:19:48;;;;;;;;;2.25;2.25;;;;;;;;5062599;28;62110;-89
2023/04/04 01:22:14;;;;;;;;;7.25;7.25;;;;;;;;5044381;28;61776;-90
2023/04/04 01:24:41;;;;;;;;;7.75;6.00;;;;;;;;5035339;28;63750;-89
2023/04/04 01:27:07;;;;;;;;;8.50;7.25;;;;;;;;5046020;28;61945;-89
2023/04/04 01:29:32;;;;;;;;;7.75;4.00;;;;;;;;5061625;28;61690;-87
2023/04/04 01:32:07;;;;;;;;;7.00;6.00;;;;;;;;5047867;28;61980;-88
2023/04/04 01:34:51;;;;;;;;;4.00;4.00;;;;;;;;5047538;28;64595;-89
2023/04/04 01:37:25;;;;;;;;;5.00;5.00;;;;;;;;5047544;28;61691;-89
2023/04/04 01:39:55;;;;;;;;;6.50;5.00;;;;;;;;5029556;28;61781;-89
2023/04/04 01:42:21;;;;;;;;;6.00;4.00;;;;;;;;5028038;28;61912;-90
2023/04/04 01:44:46;;;;;;;;;6.75;5.50;;;;;;;;5045019;28;62066;-90
2023/04/04 01:47:12;;;;;;;;;7.50;6.75;;;;;;;;5045991;28;62070;-89
2023/04/04 01:49:37;;;;;;;;;7.25;6.25;;;;;;;;5028163;28;61842;-89
2023/04/04 01:52:03;;;;;;;;;8.00;6.00;;;;;;;;5028481;28;61919;-89
2023/04/04 01:54:28;;;;;;;;;6.75;4.00;;;;;;;;5045321;28;61952;-89
2023/04/04 01:56:54;;;;;;;;;9.00;5.25;;;;;;;;5027931;28;61804;-89
2023/04/04 01:59:19;;;;;;;;;7.00;6.00;;;;;;;;5027958;28;62535;-89
2023/04/04 02:01:44;;;;;;;;;5.00;5.00;;;;;;;;5028427;28;62082;-90
2023/04/04 02:04:11;;;;;;;;;4.00;4.00;;;;;;;;5046287;28;61923;-90
2023/04/04 02:06:40;;;;;;;;;3.00;3.00;;;;;;;;5040210;28;61832;-89
2023/04/04 02:09:05;;;;;;;;;7.75;5.00;;;;;;;;5066035;28;62042;-89
2023/04/04 02:11:31;;;;;;;;;10.50;6.75;;;;;;;;5065022;28;61775;-90
2023/04/04 02:13:57;;;;;;;;;8.00;7.00;;;;;;;;5062263;28;61795;-89
2023/04/04 02:16:22;;;;;;;;;11.00;8.25;;;;;;;;5027667;28;61823;-89
2023/04/04 02:18:47;;;;;;;;;12.50;7.50;;;;;;;;5027653;28;61900;-89
2023/04/04 02:21:13;;;;;;;;;9.50;8.00;;;;;;;;5045417;28;61959;-89
2023/04/04 02:23:38;;;;;;;;;8.75;7.00;;;;;;;;5045409;28;61932;-90
2023/04/04 02:26:04;;;;;;;;;10.25;6.50;;;;;;;;5026802;28;61793;-89
2023/04/04 02:28:30;;;;;;;;;9.00;4.25;;;;;;;;5045413;28;61833;-89
2023/04/04 02:30:58;;;;;;;;;6.25;6.25;;;;;;;;5027130;28;61763;-89
2023/04/04 02:33:23;;;;;;;;;7.75;7.75;;;;;;;;5044968;28;63146;-89
2023/04/04 02:35:49;;;;;;;;;7.25;6.25;;;;;;;;5026154;28;61773;-89
2023/04/04 02:38:14;;;;;;;;;11.25;6.50;;;;;;;;5044932;28;62361;-90
2023/04/04 02:40:41;;;;;;;;;8.00;7.75;;;;;;;;5027938;28;61962;-89
2023/04/04 02:43:06;;;;;;;;;12.50;5.50;;;;;;;;5026420;28;63912;-90
2023/04/04 02:45:31;;;;;;;;;6.25;6.25;;;;;;;;5027513;28;61969;-88
2023/04/04 02:47:57;;;;;;;;;6.50;4.50;;;;;;;;5045502;28;62051;-89
2023/04/04 02:50:22;;;;;;;;;5.50;4.25;;;;;;;;5027615;28;61844;-89
2023/04/04 02:52:47;;;;;;;;;7.50;6.75;;;;;;;;5045085;28;61932;-89
2023/04/04 02:55:12;;;;;;;;;6.00;3.50;;;;;;;;5039463;28;61978;-89
2023/04/04 02:57:39;;;;;;;;;7.25;7.25;;;;;;;;5065716;28;62022;-89
2023/04/04 03:00:05;;;;;;;;;10.50;6.00;;;;;;;;5065301;28;61929;-89
2023/04/04 03:02:31;;;;;;;;;4.00;4.00;;;;;;;;5047076;28;64660;-89
2023/04/04 03:04:56;;;;;;;;;6.00;4.25;;;;;;;;5065033;28;61674;-89
2023/04/04 03:07:21;;;;;;;;;4.75;4.75;;;;;;;;5064679;28;61667;-89
2023/04/04 03:09:47;;;;;;;;;7.75;3.75;;;;;;;;5047531;28;61811;-89
2023/04/04 03:12:12;;;;;;;;;8.50;6.50;;;;;;;;5064460;28;62057;-90
2023/04/04 03:14:37;;;;;;;;;6.25;4.50;;;;;;;;5046659;28;61975;-90
2023/04/04 03:17:03;;;;;;;;;6.00;5.00;;;;;;;;5064545;28;61609;-89
2023/04/04 03:19:29;;;;;;;;;7.50;6.00;;;;;;;;5065897;28;61972;-89
2023/04/04 03:21:54;;;;;;;;;6.00;6.00;;;;;;;;5046557;28;63636;-89
2023/04/04 03:24:19;;;;;;;;;6.00;4.00;;;;;;;;5047085;28;61696;-89
2023/04/04 03:26:45;;;;;;;;;10.00;8.00;;;;;;;;5046190;28;61902;-89
2023/04/04 03:29:10;;;;;;;;;6.50;5.00;;;;;;;;5065494;28;61920;-89
2023/04/04 03:31:35;;;;;;;;;8.00;6.75;;;;;;;;5065019;28;62017;-88
2023/04/04 03:34:01;;;;;;;;;6.25;5.25;;;;;;;;5065089;28;62177;-89
2023/04/04 03:36:26;;;;;;;;;9.25;6.00;;;;;;;;5064841;28;61787;-89
2023/04/04 03:38:52;;;;;;;;;11.50;3.75;;;;;;;;5047522;28;61980;-90
2023/04/04 03:41:17;;;;;;;;;11.00;6.00;;;;;;;;5065133;28;62046;-89
2023/04/04 03:43:43;;;;;;;;;10.50;5.00;;;;;;;;5047733;28;61810;-89
2023/04/04 03:46:09;;;;;;;;;11.00;10.00;;;;;;;;5046783;28;61775;-89
2023/04/04 03:48:34;;;;;;;;;12.00;8.00;;;;;;;;5064684;28;61779;-89
2023/04/04 03:51:01;;;;;;;;;9.50;8.00;;;;;;;;5064346;28;62076;-89
2023/04/04 03:53:27;;;;;;;;;10.25;7.75;;;;;;;;5065545;28;62068;-89
2023/04/04 03:55:54;;;;;;;;;6.00;6.00;;;;;;;;5064729;28;61712;-89
2023/04/04 03:58:20;;;;;;;;;7.50;5.25;;;;;;;;5065045;28;62082;-89
2023/04/04 04:00:45;;;;;;;;;2.25;2.00;;;;;;;;5054929;28;61798;-90
2023/04/04 04:03:10;;;;;;;;;6.00;5.50;;;;;;;;5043033;28;61807;-90
2023/04/04 04:05:41;;;;;;;;;6.50;5.00;;;;;;;;5030101;28;62239;-90
2023/04/04 04:08:07;;;;;;;;;6.50;5.00;;;;;;;;5045147;28;61666;-90
2023/04/04 04:10:34;;;;;;;;;7.00;3.50;;;;;;;;5038254;28;64827;-89
2023/04/04 04:13:00;;;;;;;;;5.50;5.25;;;;;;;;5066528;28;61827;-89
2023/04/04 04:15:26;;;;;;;;;4.00;4.00;;;;;;;;5065445;28;61815;-89
2023/04/04 04:17:51;;;;;;;;;7.75;6.00;;;;;;;;5048125;28;61737;-90
2023/04/04 04:20:16;;;;;;;;;5.00;5.00;;;;;;;;5047397;28;63942;-90
2023/04/04 04:22:46;;;;;;;;;5.50;3.00;;;;;;;;5065877;28;62240;-90
2023/04/04 04:25:11;;;;;;;;;4.00;3.50;;;;;;;;5064730;28;61816;-86
2023/04/04 04:27:36;;;;;;;;;3.50;3.50;;;;;;;;5047150;28;61668;-87
2023/04/04 04:30:02;;;;;;;;;5.75;5.50;;;;;;;;5064016;28;62102;-87
2023/04/04 04:32:27;;;;;;;;;3.00;3.00;;;;;;;;5046804;28;61962;-87
2023/04/04 04:34:53;;;;;;;;;3.00;3.00;;;;;;;;5047126;28;61726;-88
2023/04/04 04:37:18;;;;;;;;;3.00;3.00;;;;;;;;5065626;28;61864;-90
2023/04/04 04:39:43;;;;;;;;;6.00;5.00;;;;;;;;5064699;28;62811;-90
2023/04/04 04:42:08;;;;;;;;;5.00;2.50;;;;;;;;5065072;28;61143;-90
2023/04/04 04:44:34;;;;;;;;;6.75;5.75;;;;;;;;5064340;28;61889;-90
2023/04/04 04:46:59;;;;;;;;;5.00;5.00;;;;;;;;5064937;28;61619;-89
2023/04/04 04:49:25;;;;;;;;;7.00;4.50;;;;;;;;5031921;28;64915;-90
2023/04/04 04:51:50;;;;;;;;;5.25;5.25;;;;;;;;5027165;28;62025;-89
2023/04/04 04:54:15;;;;;;;;;5.00;3.00;;;;;;;;5026832;28;61729;-90
2023/04/04 04:56:41;;;;;;;;;6.75;5.00;;;;;;;;5026250;28;61818;-90
2023/04/04 04:59:07;;;;;;;;;9.25;8.75;;;;;;;;5042009;28;61989;-89
2023/04/04 05:01:33;;;;;;;;;9.75;9.75;;;;;;;;5026788;28;61994;-89
2023/04/04 05:03:58;;;;;;;;;16.50;14.00;;;;;;;;5026060;28;61768;-88
2023/04/04 05:06:23;;;;;;;;;23.75;18.75;;;;;;;;5037828;28;61893;-88
2023/04/04 05:08:49;;;;;;;;;21.75;19.75;;;;;;;;5061367;28;62652;-89
2023/04/04 05:14:17;;;;;;;;;8.75;7.50;;;;;;;;5062032;28;61925;-87
2023/04/04 05:16:42;;;;;;;;;13.50;10.75;;;;;;;;5051620;28;62067;-87
2023/04/04 05:19:07;;;;;;;;;28.25;22.75;;;;;;;;5023486;28;64994;-88
2023/04/04 05:21:33;;;;;;;;;24.00;19.75;;;;;;;;5057621;28;61969;-89
2023/04/04 05:23:58;;;;;;;;;15.00;13.75;;;;;;;;5031249;28;61974;-90
2023/04/04 05:26:24;;;;;;;;;10.75;9.00;;;;;;;;5024277;28;61986;-90
2023/04/04 05:28:49;;;;;;;;;12.25;10.25;;;;;;;;5042294;28;61741;-91
2023/04/04 05:31:14;;;;;;;;;22.75;19.50;;;;;;;;5054413;28;62050;-90
2023/04/04 05:33:39;;;;;;;;;10.00;7.00;;;;;;;;5044556;28;62182;-85
2023/04/04 05:36:05;;;;;;;;;14.50;12.00;;;;;;;;5061850;28;62169;-86
2023/04/04 05:38:31;;;;;;;;;24.25;18.00;;;;;;;;5061429;28;63622;-83
2023/04/04 05:40:56;;;;;;;;;19.25;13.00;;;;;;;;5040680;28;61806;-84
2023/04/04 05:43:22;;;;;;;;;14.00;12.25;;;;;;;;5059824;28;61953;-85
2023/04/04 05:45:47;;;;;;;;;15.50;12.25;;;;;;;;5059049;28;61866;-87
2023/04/04 05:48:14;;;;;;;;;13.25;10.75;;;;;;;;5043663;28;64059;-85
2023/04/04 05:50:39;;;;;;;;;16.00;12.00;;;;;;;;5058176;28;61670;-88
2023/04/04 05:53:05;;;;;;;;;7.00;7.00;;;;;;;;5029085;28;62101;-86
2023/04/04 05:55:30;;;;;;;;;5.25;4.00;;;;;;;;5034787;28;62112;-87
2023/04/04 05:57:56;;;;;;;;;12.25;10.25;;;;;;;;5060527;28;63089;-88
2023/04/04 06:00:22;;;;;;;;;14.25;9.75;;;;;;;;5042474;28;61819;-86
2023/04/04 06:02:47;;;;;;;;;17.50;11.75;;;;;;;;5057128;28;62254;-90
2023/04/04 06:05:14;;;;;;;;;11.75;10.50;;;;;;;;5042637;28;61712;-90
2023/04/04 06:07:39;;;;;;;;;11.75;9.00;;;;;;;;5057650;28;61991;-86
2023/04/04 06:10:06;;;;;;;;;10.75;6.00;;;;;;;;5061358;28;61886;-86
2023/04/04 06:12:31;;;;;;;;;14.25;10.50;;;;;;;;5046317;28;61833;-86
2023/04/04 06:14:56;;;;;;;;;12.75;12.75;;;;;;;;5046599;28;61941;-86
2023/04/04 06:17:22;;;;;;;;;7.25;6.50;;;;;;;;5033112;28;64011;-86
2023/04/04 06:19:48;;;;;;;;;11.25;6.25;;;;;;;;5045054;28;62075;-88
2023/04/04 06:22:14;;;;;;;;;9.50;5.50;;;;;;;;5064507;28;61902;-85
2023/04/04 06:24:40;;;;;;;;;7.00;6.75;;;;;;;;5046118;28;61702;-87
2023/04/04 06:27:05;;;;;;;;;6.75;6.75;;;;;;;;5043167;28;63519;-82
2023/04/04 06:29:30;;;;;;;;;12.50;7.00;;;;;;;;5044104;28;61787;-86
2023/04/04 06:31:57;;;;;;;;;5.50;5.25;;;;;;;;5026458;28;62020;-87
2023/04/04 06:34:22;;;;;;;;;3.00;3.00;;;;;;;;5039613;28;61879;-84
2023/04/04 06:36:47;;;;;;;;;8.75;6.00;;;;;;;;5026034;28;64868;-85
2023/04/04 06:39:12;;;;;;;;;8.75;6.75;;;;;;;;5026171;28;61798;-84
2023/04/04 06:41:38;;;;;;;;;8.50;5.75;;;;;;;;5043947;28;62046;-84
2023/04/04 06:44:03;;;;;;;;;9.00;5.25;;;;;;;;5026382;28;61809;-86
2023/04/04 06:46:30;;;;;;;;;7.00;6.00;;;;;;;;5025072;28;64676;-84
2023/04/04 06:48:55;;;;;;;;;10.75;8.00;;;;;;;;5026279;28;61818;-87
2023/04/04 06:51:20;;;;;;;;;13.00;9.50;;;;;;;;5060829;28;61754;-86
2023/04/04 06:53:46;;;;;;;;;12.75;7.50;;;;;;;;5047384;28;62043;-87
2023/04/04 06:56:11;;;;;;;;;8.00;6.00;;;;;;;;5040576;28;64008;-87
2023/04/04 06:58:38;;;;;;;;;6.25;6.25;;;;;;;;5063519;28;61807;-87
2023/04/04 07:01:03;;;;;;;;;8.00;5.25;;;;;;;;5045532;28;61798;-87
2023/04/04 07:03:29;;;;;;;;;6.00;5.50;;;;;;;;5050188;28;61928;-86
2023/04/04 07:05:54;;;;;;;;;6.00;6.00;;;;;;;;5027605;28;64876;-87
2023/04/04 07:08:20;;;;;;;;;7.00;6.00;;;;;;;;5062609;28;61844;-87
2023/04/04 07:10:45;;;;;;;;;10.00;7.25;;;;;;;;5042697;28;62303;-87
2023/04/04 07:13:10;;;;;;;;;7.50;5.00;;;;;;;;5045828;28;62192;-86
2023/04/04 07:15:35;;;;;;;;;11.00;8.75;;;;;;;;5044394;28;63453;-87
2023/04/04 07:18:01;;;;;;;;;8.75;8.25;;;;;;;;5045564;28;61755;-87
2023/04/04 07:20:27;;;;;;;;;8.50;6.75;;;;;;;;5045496;28;61919;-86
2023/04/04 07:22:53;;;;;;;;;7.75;6.25;;;;;;;;5062684;28;62090;-86
2023/04/04 07:25:20;;;;;;;;;18.25;12.50;;;;;;;;5044080;28;64113;-86
2023/04/04 07:30:25;;;;;;;;;8.75;4.00;;;;;;;;5385546;22;61883;-80
2023/04/04 07:32:57;;;;;;;;;9.75;8.50;;;;;;;;4985428;28;62130;-81
2023/04/04 07:35:23;;;;;;;;;14.00;11.00;;;;;;;;5002496;28;62129;-81
2023/04/04 07:37:49;;;;;;;;;8.25;5.00;;;;;;;;5009062;28;61857;-81
2023/04/04 07:40:14;;;;;;;;;10.75;8.25;;;;;;;;4985612;28;61990;-81
2023/04/04 07:42:46;;;;;;;;;11.25;8.25;;;;;;;;4985443;28;62296;-81
2023/04/04 07:45:12;;;;;;;;;2.25;2.25;;;;;;;;5001844;28;62037;-81
2023/04/04 07:47:41;;;;;;;;;12.50;6.25;;;;;;;;4984793;28;61814;-81
2023/04/04 07:50:06;;;;;;;;;14.50;10.00;;;;;;;;5003401;28;61664;-81
2023/04/04 07:52:32;;;;;;;;;12.50;8.50;;;;;;;;4985423;28;62150;-81
2023/04/04 07:54:59;;;;;;;;;5.75;4.00;;;;;;;;4984593;28;63910;-80
2023/04/04 07:57:24;;;;;;;;;10.50;6.00;;;;;;;;4985104;28;61955;-81
2023/04/04 07:59:49;;;;;;;;;7.25;7.00;;;;;;;;4984338;28;61729;-81
2023/04/04 08:02:15;;;;;;;;;10.50;9.25;;;;;;;;4985513;28;62008;-82
2023/04/04 08:04:40;;;;;;;;;8.50;6.75;;;;;;;;4984385;28;64768;-81
2023/04/04 08:07:05;;;;;;;;;9.25;8.25;;;;;;;;4984802;28;61947;-81
2023/04/04 08:09:33;;;;;;;;;8.00;7.00;;;;;;;;4985182;28;61879;-82
2023/04/04 08:11:58;;;;;;;;;13.00;7.75;;;;;;;;5003054;28;62101;-82
2023/04/04 08:14:23;;;;;;;;;12.50;8.25;;;;;;;;5001605;28;62810;-82
2023/04/04 08:16:49;;;;;;;;;11.50;10.50;;;;;;;;4983838;28;62039;-82
2023/04/04 08:19:15;;;;;;;;;8.75;7.50;;;;;;;;4984901;28;62025;-82
2023/04/04 08:21:40;;;;;;;;;7.00;7.00;;;;;;;;5001873;28;62115;-81
2023/04/04 08:24:06;;;;;;;;;8.50;8.50;;;;;;;;4995236;28;62004;-81
2023/04/04 08:26:31;;;;;;;;;9.50;6.75;;;;;;;;4965140;28;61780;-82
2023/04/04 08:28:57;;;;;;;;;9.25;7.75;;;;;;;;4964195;28;61823;-82
2023/04/04 08:31:22;;;;;;;;;12.50;7.50;;;;;;;;4976564;28;62151;-81
2023/04/04 08:33:47;;;;;;;;;6.00;5.00;;;;;;;;4999806;28;63010;-81
2023/04/04 08:36:12;;;;;;;;;10.00;9.00;;;;;;;;4984422;28;61894;-80
2023/04/04 08:38:38;;;;;;;;;8.75;6.50;;;;;;;;4984520;28;62030;-80
2023/04/04 08:41:03;;;;;;;;;5.50;5.50;;;;;;;;4991307;28;61759;-80
2023/04/04 08:43:31;;;;;;;;;9.25;6.00;;;;;;;;5020737;28;61990;-80
2023/04/04 08:45:58;;;;;;;;;14.25;9.25;;;;;;;;4984038;28;62000;-81
2023/04/04 08:48:25;;;;;;;;;9.25;7.00;;;;;;;;4993032;28;62011;-80
2023/04/04 08:50:52;;;;;;;;;9.25;8.00;;;;;;;;4982722;28;61772;-80
2023/04/04 08:53:18;;;;;;;;;6.75;6.75;;;;;;;;4998317;28;61882;-80
2023/04/04 08:55:44;;;;;;;;;12.25;8.50;;;;;;;;4984168;28;62024;-80
2023/04/04 08:58:09;;;;;;;;;6.50;6.50;;;;;;;;4983591;28;61959;-80
2023/04/04 09:00:35;;;;;;;;;13.00;10.00;;;;;;;;5001521;28;61758;-80
2023/04/04 09:03:06;;;;;;;;;13.00;7.00;;;;;;;;4983380;28;63461;-80
2023/04/04 09:05:31;;;;;;;;;6.25;4.50;;;;;;;;5001949;28;61757;-81
2023/04/04 09:07:57;;;;;;;;;6.50;5.75;;;;;;;;5001659;28;61775;-80
2023/04/04 09:10:22;;;;;;;;;6.00;6.00;;;;;;;;5001856;28;61653;-80
2023/04/04 09:12:49;;;;;;;;;6.00;6.00;;;;;;;;4983248;28;64877;-80
2023/04/04 09:15:15;;;;;;;;;11.25;7.00;;;;;;;;4983685;28;61798;-79
2023/04/04 09:17:40;;;;;;;;;7.25;6.00;;;;;;;;4983870;28;61901;-80
2023/04/04 09:20:24;;;;;;;;;5.75;3.00;;;;;;;;4983570;28;61827;-78
2023/04/04 09:22:50;;;;;;;;;6.75;6.75;;;;;;;;4972862;28;63930;-80
2023/04/04 09:25:15;;;;;;;;;8.50;6.50;;;;;;;;4990294;28;61738;-80
2023/04/04 09:27:43;;;;;;;;;6.00;5.50;;;;;;;;4991470;28;61698;-79
2023/04/04 09:30:08;;;;;;;;;5.00;5.00;;;;;;;;4990335;28;61978;-79
2023/04/04 09:32:34;;;;;;;;;5.25;5.00;;;;;;;;4990214;28;61996;-79
2023/04/04 09:35:01;;;;;;;;;9.25;3.00;;;;;;;;4991285;28;62033;-79
2023/04/04 09:37:27;;;;;;;;;5.25;5.25;;;;;;;;4992793;28;61743;-79
2023/04/04 09:39:52;;;;;;;;;9.75;6.75;;;;;;;;4975139;28;62203;-79
2023/04/04 09:42:18;;;;;;;;;11.00;7.75;;;;;;;;4971148;28;64900;-80
2023/04/04 09:44:43;;;;;;;;;6.50;5.50;;;;;;;;4991469;28;61888;-79
2023/04/04 09:47:27;;;;;;;;;7.00;5.00;;;;;;;;4976073;28;61878;-79
2023/04/04 09:49:52;;;;;;;;;8.00;6.00;;;;;;;;4995199;28;61740;-80
2023/04/04 09:52:19;;;;;;;;;7.50;6.50;;;;;;;;4975160;28;63769;-79
2023/04/04 09:54:53;;;;;;;;;7.00;5.25;;;;;;;;4977488;28;61921;-80
2023/04/04 09:57:22;;;;;;;;;7.75;5.00;;;;;;;;4977639;28;61675;-79
2023/04/04 09:59:49;;;;;;;;;7.50;6.50;;;;;;;;4975928;28;61894;-79
2023/04/04 10:02:15;;;;;;;;;7.75;6.75;;;;;;;;4974785;28;63873;-79
2023/04/04 10:04:58;;;;;;;;;6.75;5.25;;;;;;;;4995030;28;61852;-80
2023/04/04 10:07:27;;;;;;;;;3.00;3.00;;;;;;;;4975583;28;62063;-79
2023/04/04 10:09:53;;;;;;;;;6.75;6.25;;;;;;;;4994574;28;62103;-79
2023/04/04 10:12:23;;;;;;;;;4.50;3.00;;;;;;;;4992366;28;61934;-79
2023/04/04 10:14:54;;;;;;;;;4.75;4.75;;;;;;;;4976395;28;62267;-79
2023/04/04 10:17:20;;;;;;;;;4.00;4.00;;;;;;;;4994996;28;61849;-78
2023/04/04 10:19:46;;;;;;;;;6.50;4.00;;;;;;;;4997908;28;61919;-79
2023/04/04 10:22:11;;;;;;;;;19.25;17.50;;;;;;;;4993307;28;61894;-79
2023/04/04 10:24:36;;;;;;;;;4.75;4.75;;;;;;;;4977016;28;61807;-79
2023/04/04 10:27:02;;;;;;;;;4.75;4.00;;;;;;;;4975441;28;62140;-79
2023/04/04 10:29:27;;;;;;;;;3.75;3.75;;;;;;;;4996057;28;62055;-79
2023/04/04 10:31:56;;;;;;;;;4.75;3.25;;;;;;;;4976823;28;63721;-79
2023/04/04 10:34:35;;;;;;;;;6.50;3.00;;;;;;;;4977169;28;61789;-79
2023/04/04 10:37:08;;;;;;;;;22.50;16.75;;;;;;;;4996678;28;61783;-79
2023/04/04 10:39:39;;;;;;;;;11.00;7.25;;;;;;;;4976821;28;62080;-79
2023/04/04 10:42:06;;;;;;;;;3.00;3.00;;;;;;;;4993911;28;62065;-78
2023/04/04 10:44:38;;;;;;;;;14.25;14.25;;;;;;;;4975857;28;62292;-79
2023/04/04 10:47:03;;;;;;;;;5.00;4.00;;;;;;;;4992921;28;61950;-78
2023/04/04 10:49:29;;;;;;;;;3.00;3.00;;;;;;;;4997725;28;62092;-80
2023/04/04 10:51:55;;;;;;;;;5.00;3.75;;;;;;;;4979375;28;63927;-80
2023/04/04 10:54:21;;;;;;;;;4.00;4.00;;;;;;;;4971601;28;61760;-79
2023/04/04 10:56:46;;;;;;;;;4.75;4.50;;;;;;;;4975424;28;62187;-81
2023/04/04 10:59:12;;;;;;;;;7.25;4.25;;;;;;;;4977610;28;61907;-81
2023/04/04 11:01:57;;;;;;;;;15.25;14.25;;;;;;;;4975968;28;63691;-82
2023/04/04 11:04:42;;;;;;;;;20.50;16.50;;;;;;;;4992897;28;61967;-82
2023/04/04 11:07:11;;;;;;;;;12.00;8.50;;;;;;;;4975130;28;61722;-85
2023/04/04 11:10:11;;;;;;;;;12.25;11.25;;;;;;;;4992703;28;61697;-84
2023/04/04 11:12:52;;;;;;;;;8.50;5.50;;;;;;;;4940851;28;62156;-82
2023/04/04 11:15:20;;;;;;;;;5.00;4.00;;;;;;;;4926560;28;62031;-82
2023/04/04 11:17:48;;;;;;;;;5.00;3.25;;;;;;;;4939359;28;61945;-82
2023/04/04 11:20:14;;;;;;;;;4.00;2.75;;;;;;;;4942110;28;61969;-82
2023/04/04 11:22:41;;;;;;;;;6.00;6.00;;;;;;;;4924692;28;63598;-83
2023/04/04 11:25:29;;;;;;;;;6.25;6.00;;;;;;;;4925223;28;62033;-82
2023/04/04 11:27:56;;;;;;;;;8.00;7.50;;;;;;;;4925420;28;62172;-82
2023/04/04 11:30:21;;;;;;;;;9.00;4.75;;;;;;;;4925166;28;62079;-81
2023/04/04 11:32:47;;;;;;;;;3.00;3.00;;;;;;;;4925164;28;63996;-82
2023/04/04 11:35:15;;;;;;;;;7.50;3.25;;;;;;;;4925645;28;61837;-82
2023/04/04 11:37:59;;;;;;;;;5.50;4.75;;;;;;;;4924540;28;62217;-82
2023/04/04 11:40:35;;;;;;;;;5.75;5.75;;;;;;;;4923536;28;61909;-83
2023/04/04 11:43:02;;;;;;;;;3.00;2.00;;;;;;;;4991091;28;61921;-84
2023/04/04 11:45:30;;;;;;;;;4.00;4.00;;;;;;;;4992426;28;61960;-85
2023/04/04 11:47:56;;;;;;;;;7.00;5.00;;;;;;;;4974334;28;62230;-83
2023/04/04 11:50:22;;;;;;;;;4.25;3.50;;;;;;;;4973635;28;62002;-83
2023/04/04 11:52:50;;;;;;;;;5.50;4.00;;;;;;;;4992752;28;61838;-82
2023/04/04 11:55:18;;;;;;;;;6.00;5.00;;;;;;;;4975446;28;61951;-83
2023/04/04 11:57:45;;;;;;;;;6.25;5.25;;;;;;;;4975535;28;61929;-83
2023/04/04 12:00:11;;;;;;;;;4.00;4.00;;;;;;;;4974813;28;62200;-83
2023/04/04 12:02:38;;;;;;;;;2.75;2.75;;;;;;;;4991591;28;62208;-82
2023/04/04 12:05:03;;;;;;;;;3.00;3.00;;;;;;;;4975258;28;62007;-83
2023/04/04 12:07:29;;;;;;;;;4.00;3.00;;;;;;;;4991768;28;61929;-83
2023/04/04 12:09:59;;;;;;;;;5.00;4.25;;;;;;;;4974330;28;62177;-83
2023/04/04 12:12:27;;;;;;;;;4.50;4.50;;;;;;;;4975287;28;64466;-82
2023/04/04 12:14:58;;;;;;;;;4.00;4.00;;;;;;;;4991952;28;61948;-82
2023/04/04 12:20:16;;;;;;;;;5.00;5.00;;;;;;;;4981710;28;61905;-83
2023/04/04 12:22:42;;;;;;;;;7.25;6.25;;;;;;;;4976966;28;63843;-83
2023/04/04 12:25:17;;;;;;;;;5.00;4.00;;;;;;;;4991409;28;61900;-84
2023/04/04 12:27:42;;;;;;;;;5.00;3.00;;;;;;;;4974235;28;62118;-83
2023/04/04 12:30:14;;;;;;;;;5.00;4.00;;;;;;;;4972263;28;62217;-84
2023/04/04 12:32:40;;;;;;;;;5.00;4.00;;;;;;;;4975651;28;64724;-84
2023/04/04 12:35:05;;;;;;;;;6.75;3.50;;;;;;;;4990497;28;61788;-85
2023/04/04 12:37:53;;;;;;;;;4.25;4.00;;;;;;;;4975784;28;61822;-84
2023/04/04 12:40:21;;;;;;;;;4.00;3.00;;;;;;;;4991188;28;61831;-83
2023/04/04 12:42:47;;;;;;;;;3.75;3.25;;;;;;;;4990648;28;61904;-83
2023/04/04 12:45:17;;;;;;;;;7.00;6.00;;;;;;;;4973499;28;62227;-83
2023/04/04 12:48:12;;;;;;;;;6.25;5.00;;;;;;;;4990773;28;61781;-83
2023/04/04 12:50:58;;;;;;;;;5.25;5.25;;;;;;;;4954531;28;62086;-84
2023/04/04 12:53:25;;;;;;;;;7.75;6.75;;;;;;;;4974674;28;63702;-84
2023/04/04 12:55:51;;;;;;;;;4.25;2.75;;;;;;;;4973744;28;62473;-82
2023/04/04 12:58:24;;;;;;;;;8.00;4.50;;;;;;;;4973833;28;62042;-85
2023/04/04 13:01:00;;;;;;;;;3.25;2.00;;;;;;;;4990864;28;61934;-84
2023/04/04 13:03:36;;;;;;;;;;;;;;;;;;;;;
2023/04/04 13:06:20;;;;;;;;;5.25;5.25;;;;;;;;4989761;28;74186;-84
2023/04/04 13:08:56;;;;;;;;;4.50;4.50;;;;;;;;4974861;28;61941;-84
2023/04/04 13:11:22;;;;;;;;;6.00;2.75;;;;;;;;4971735;28;62103;-84
2023/04/04 13:14:04;;;;;;;;;5.00;5.00;;;;;;;;4974168;28;63588;-85
2023/04/04 13:17:00;;;;;;;;;7.25;6.25;;;;;;;;4990768;28;62063;-84
2023/04/04 13:19:25;;;;;;;;;12.75;10.75;;;;;;;;4967115;28;62130;-84
2023/04/04 13:21:54;;;;;;;;;7.00;5.00;;;;;;;;4993362;28;61874;-85
2023/04/04 13:24:25;;;;;;;;;5.50;4.50;;;;;;;;4975578;28;63823;-85
2023/04/04 13:28:02;;;;;;;;;;;;;;;;;;;;;
2023/04/04 13:32:46;;;;;;;;;5.67;3.67;;;;;;;;4988598;28;61787;-86
2023/04/04 13:35:21;;;;;;;;;5.25;4.75;;;;;;;;4976007;28;63814;-86
2023/04/04 13:37:46;;;;;;;;;4.75;4.75;;;;;;;;4977813;28;62213;-87
2023/04/04 13:40:56;;;;;;;;;5.50;5.25;;;;;;;;4996713;28;62079;-86
2023/04/04 13:43:20;;;;;;;;;10.25;9.00;;;;;;;;4896267;28;62003;-82
2023/04/04 13:45:45;;;;;;;;;8.00;6.33;;;;;;;;4874304;29;63682;-83
2023/04/04 13:48:15;;;;;;;;;4.33;4.33;;;;;;;;4873795;29;62394;-82
2023/04/04 13:50:46;;;;;;;;;5.00;3.67;;;;;;;;4898896;29;62178;-83
2023/04/04 13:53:37;;;;;;;;;7.00;4.67;;;;;;;;4903773;29;61980;-84
2023/04/04 13:56:05;;;;;;;;;6.33;6.00;;;;;;;;4895683;29;62897;-83
2023/04/04 13:59:34;;;;;;;;;;;;;;;;;;;;;
2023/04/04 14:02:27;;;;;;;;;5.00;4.00;;;;;;;;4819655;29;62011;-85
2023/04/04 14:06:07;;;;;;;;;6.00;6.00;;;;;;;;4827364;29;61799;-85
2023/04/04 14:08:36;;;;;;;;;;;;;;;;;;;;;
2023/04/04 14:11:08;;;;;;;;;5.33;4.67;;;;;;;;4826513;29;73544;-85
2023/04/04 14:14:09;;;;;;;;;3.67;3.33;;;;;;;;4819537;29;62127;-85
2023/04/04 14:17:13;;;;;;;;;;;;;;;;;;;;;
2023/04/04 14:20:06;;;;;;;;;4.00;4.00;;;;;;;;4803327;29;92068;-85
2023/04/04 14:22:43;;;;;;;;;4.33;4.33;;;;;;;;4828622;29;62100;-85
2023/04/04 14:25:08;;;;;;;;;4.67;3.00;;;;;;;;4828824;29;62010;-85
2023/04/04 14:28:10;;;;;;;;;4.00;4.00;;;;;;;;4836231;29;61787;-85
2023/04/04 14:30:46;;;;;;;;;4.00;4.00;;;;;;;;4809551;29;62004;-84
2023/04/04 14:33:11;;;;;;;;;6.00;4.67;;;;;;;;4794868;29;61896;-85
2023/04/04 14:35:45;;;;;;;;;3.00;3.00;;;;;;;;4838845;29;62359;-83
2023/04/04 14:38:52;;;;;;;;;3.00;3.00;;;;;;;;4864102;29;62046;-84
2023/04/04 14:41:28;;;;;;;;;5.33;5.00;;;;;;;;4859986;29;62102;-84
2023/04/04 14:47:06;;;;;;;;;6.00;5.67;;;;;;;;4851186;29;61780;-86
2023/04/04 14:49:37;;;;;;;;;4.00;3.00;;;;;;;;4860639;29;62257;-83
2023/04/04 14:52:05;;;;;;;;;2.67;2.00;;;;;;;;4862548;29;63042;-83
2023/04/04 14:54:30;;;;;;;;;4.00;4.00;;;;;;;;4918212;28;61932;-83
2023/04/04 14:57:05;;;;;;;;;3.33;3.33;;;;;;;;4937949;28;61864;-83
2023/04/04 14:59:31;;;;;;;;;4.67;3.00;;;;;;;;4965020;28;62425;-83
2023/04/04 15:01:57;;;;;;;;;5.67;4.33;;;;;;;;4969995;28;63824;-82
2023/04/04 15:04:26;;;;;;;;;3.00;2.00;;;;;;;;4973891;28;62084;-87
2023/04/04 15:06:52;;;;;;;;;8.33;5.00;;;;;;;;4977968;28;61977;-81